sensor_id;sensor_type;location;lat;lon;timestamp;pressure;altitude;pressure_sealevel;temperature;humidity
70925;BME280;58577;52.410;13.242;2022-07-29T00:01:42;101509.66;;;15.78;58.82
70925;BME280;58577;52.410;13.242;2022-07-29T00:04:28;101506.44;;;15.74;59.02
70925;BME280;58577;52.410;13.242;2022-07-29T00:07:14;101499.81;;;15.68;59.33
70925;BME280;58577;52.410;13.242;2022-07-29T00:10:00;101512.81;;;15.65;58.27
70925;BME280;58577;52.410;13.242;2022-07-29T00:12:46;101502.03;;;15.73;58.73
70925;BME280;58577;52.410;13.242;2022-07-29T00:15:32;101505.28;;;15.77;58.27
70925;BME280;58577;52.410;13.242;2022-07-29T00:18:18;101488.97;;;15.68;59.22
70925;BME280;58577;52.410;13.242;2022-07-29T00:21:04;101491.69;;;15.68;59.42
70925;BME280;58577;52.410;13.242;2022-07-29T00:23:49;101493.88;;;15.65;60.31
70925;BME280;58577;52.410;13.242;2022-07-29T00:26:35;101481.97;;;15.49;59.96
70925;BME280;58577;52.410;13.242;2022-07-29T00:29:21;101486.72;;;15.56;60.38
70925;BME280;58577;52.410;13.242;2022-07-29T00:32:07;101484.94;;;15.38;60.13
70925;BME280;58577;52.410;13.242;2022-07-29T00:34:53;101493.03;;;15.38;60.33
70925;BME280;58577;52.410;13.242;2022-07-29T00:37:58;101488.09;;;15.33;60.14
70925;BME280;58577;52.410;13.242;2022-07-29T00:40:44;101490.22;;;15.22;60.54
70925;BME280;58577;52.410;13.242;2022-07-29T00:43:30;101488.41;;;15.22;61.82
70925;BME280;58577;52.410;13.242;2022-07-29T00:46:16;101478.19;;;15.16;61.92
70925;BME280;58577;52.410;13.242;2022-07-29T00:49:02;101481.81;;;15.25;61.09
70925;BME280;58577;52.410;13.242;2022-07-29T00:51:48;101472.00;;;15.24;61.44
70925;BME280;58577;52.410;13.242;2022-07-29T00:54:34;101480.69;;;15.09;61.69
70925;BME280;58577;52.410;13.242;2022-07-29T00:57:20;101469.13;;;15.25;61.20
70925;BME280;58577;52.410;13.242;2022-07-29T01:00:09;101467.06;;;15.19;61.21
70925;BME280;58577;52.410;13.242;2022-07-29T01:02:55;101465.00;;;15.13;61.20
70925;BME280;58577;52.410;13.242;2022-07-29T01:05:43;101472.34;;;15.21;61.72
70925;BME280;58577;52.410;13.242;2022-07-29T01:08:31;101478.09;;;15.26;61.01
70925;BME280;58577;52.410;13.242;2022-07-29T01:11:18;101464.19;;;15.12;62.18
70925;BME280;58577;52.410;13.242;2022-07-29T01:14:06;101468.03;;;15.10;61.71
70925;BME280;58577;52.410;13.242;2022-07-29T01:17:00;101457.91;;;15.12;62.35
70925;BME280;58577;52.410;13.242;2022-07-29T01:19:52;101451.22;;;14.98;63.23
70925;BME280;58577;52.410;13.242;2022-07-29T01:23:03;101450.44;;;15.06;63.22
70925;BME280;58577;52.410;13.242;2022-07-29T01:29:15;101437.06;;;15.04;62.48
70925;BME280;58577;52.410;13.242;2022-07-29T01:32:11;101424.00;;;14.91;62.84
70925;BME280;58577;52.410;13.242;2022-07-29T01:35:04;101413.09;;;15.01;62.83
70925;BME280;58577;52.410;13.242;2022-07-29T01:37:57;101403.00;;;14.85;63.62
70925;BME280;58577;52.410;13.242;2022-07-29T01:40:49;101388.00;;;14.91;63.98
70925;BME280;58577;52.410;13.242;2022-07-29T01:44:02;101401.63;;;14.81;63.20
70925;BME280;58577;52.410;13.242;2022-07-29T01:46:54;101390.53;;;14.84;63.94
70925;BME280;58577;52.410;13.242;2022-07-29T01:49:47;101391.16;;;14.78;63.93
70925;BME280;58577;52.410;13.242;2022-07-29T01:53:05;101385.91;;;14.77;64.03
70925;BME280;58577;52.410;13.242;2022-07-29T01:55:52;101381.09;;;14.62;64.51
70925;BME280;58577;52.410;13.242;2022-07-29T01:58:41;101389.34;;;14.61;64.29
70925;BME280;58577;52.410;13.242;2022-07-29T02:01:30;101384.53;;;14.72;64.39
70925;BME280;58577;52.410;13.242;2022-07-29T02:04:17;101399.63;;;14.57;64.36
70925;BME280;58577;52.410;13.242;2022-07-29T02:07:06;101386.34;;;14.46;64.89
70925;BME280;58577;52.410;13.242;2022-07-29T02:09:53;101392.56;;;14.46;65.20
70925;BME280;58577;52.410;13.242;2022-07-29T02:12:42;101400.84;;;14.45;65.27
70925;BME280;58577;52.410;13.242;2022-07-29T02:15:31;101389.56;;;14.67;65.81
70925;BME280;58577;52.410;13.242;2022-07-29T02:18:18;101404.53;;;14.62;65.27
70925;BME280;58577;52.410;13.242;2022-07-29T02:21:06;101400.38;;;14.49;65.16
70925;BME280;58577;52.410;13.242;2022-07-29T02:23:54;101386.50;;;14.62;65.97
70925;BME280;58577;52.410;13.242;2022-07-29T02:26:42;101394.22;;;14.57;65.96
70925;BME280;58577;52.410;13.242;2022-07-29T02:29:30;101403.75;;;14.69;65.19
70925;BME280;58577;52.410;13.242;2022-07-29T02:32:17;101403.91;;;14.68;65.87
70925;BME280;58577;52.410;13.242;2022-07-29T02:35:06;101400.31;;;14.59;65.46
70925;BME280;58577;52.410;13.242;2022-07-29T02:37:53;101403.69;;;14.61;65.46
70925;BME280;58577;52.410;13.242;2022-07-29T02:41:07;101403.75;;;14.51;65.42
70925;BME280;58577;52.410;13.242;2022-07-29T02:44:06;101407.00;;;14.55;65.36
70925;BME280;58577;52.410;13.242;2022-07-29T02:47:17;101395.97;;;14.66;66.16
70925;BME280;58577;52.410;13.242;2022-07-29T02:53:18;101388.94;;;14.55;65.90
70925;BME280;58577;52.410;13.242;2022-07-29T02:56:08;101395.66;;;14.51;65.50
70925;BME280;58577;52.410;13.242;2022-07-29T02:59:02;101398.22;;;14.53;66.14
70925;BME280;58577;52.410;13.242;2022-07-29T03:01:48;101395.75;;;14.60;65.48
70925;BME280;58577;52.410;13.242;2022-07-29T03:04:35;101402.50;;;14.82;64.73
70925;BME280;58577;52.410;13.242;2022-07-29T03:07:23;101402.22;;;14.67;64.08
70925;BME280;58577;52.410;13.242;2022-07-29T03:10:10;101392.94;;;14.69;65.59
70925;BME280;58577;52.410;13.242;2022-07-29T03:12:57;101391.28;;;14.68;65.60
70925;BME280;58577;52.410;13.242;2022-07-29T03:15:44;101388.22;;;14.71;65.36
70925;BME280;58577;52.410;13.242;2022-07-29T03:18:31;101391.72;;;14.64;64.87
70925;BME280;58577;52.410;13.242;2022-07-29T03:21:17;101383.81;;;14.62;65.01
70925;BME280;58577;52.410;13.242;2022-07-29T03:24:03;101383.81;;;14.62;66.32
70925;BME280;58577;52.410;13.242;2022-07-29T03:26:49;101394.16;;;14.75;65.09
70925;BME280;58577;52.410;13.242;2022-07-29T03:29:34;101390.41;;;14.68;64.89
70925;BME280;58577;52.410;13.242;2022-07-29T03:32:20;101401.00;;;14.61;64.55
70925;BME280;58577;52.410;13.242;2022-07-29T03:35:07;101386.72;;;14.95;64.48
70925;BME280;58577;52.410;13.242;2022-07-29T03:37:53;101376.88;;;14.86;65.48
70925;BME280;58577;52.410;13.242;2022-07-29T03:40:51;101370.50;;;14.69;64.95
70925;BME280;58577;52.410;13.242;2022-07-29T03:43:39;101366.63;;;14.71;65.11
70925;BME280;58577;52.410;13.242;2022-07-29T03:46:28;101370.69;;;14.75;65.46
70925;BME280;58577;52.410;13.242;2022-07-29T03:49:16;101370.00;;;14.73;66.13
70925;BME280;58577;52.410;13.242;2022-07-29T03:52:02;101375.69;;;14.62;64.53
70925;BME280;58577;52.410;13.242;2022-07-29T03:54:49;101367.25;;;14.65;66.07
70925;BME280;58577;52.410;13.242;2022-07-29T03:57:36;101376.84;;;14.60;65.19
70925;BME280;58577;52.410;13.242;2022-07-29T04:00:24;101382.94;;;14.62;64.40
70925;BME280;58577;52.410;13.242;2022-07-29T04:03:11;101379.81;;;14.74;64.81
70925;BME280;58577;52.410;13.242;2022-07-29T04:06:02;101377.13;;;14.74;65.49
70925;BME280;58577;52.410;13.242;2022-07-29T04:08:48;101375.69;;;14.88;65.39
70925;BME280;58577;52.410;13.242;2022-07-29T04:11:36;101389.13;;;15.06;64.89
70925;BME280;58577;52.410;13.242;2022-07-29T04:14:22;101381.25;;;14.87;64.98
70925;BME280;58577;52.410;13.242;2022-07-29T04:17:08;101399.50;;;14.93;63.89
70925;BME280;58577;52.410;13.242;2022-07-29T04:19:54;101388.81;;;15.09;63.79
70925;BME280;58577;52.410;13.242;2022-07-29T04:22:40;101379.00;;;15.08;64.47
70925;BME280;58577;52.410;13.242;2022-07-29T04:25:26;101385.63;;;15.14;64.24
70925;BME280;58577;52.410;13.242;2022-07-29T04:28:12;101392.22;;;15.20;63.63
70925;BME280;58577;52.410;13.242;2022-07-29T04:30:58;101397.91;;;15.08;63.55
70925;BME280;58577;52.410;13.242;2022-07-29T04:33:44;101394.94;;;15.20;63.91
70925;BME280;58577;52.410;13.242;2022-07-29T04:36:33;101390.59;;;15.27;63.87
70925;BME280;58577;52.410;13.242;2022-07-29T04:39:19;101387.31;;;15.15;64.09
70925;BME280;58577;52.410;13.242;2022-07-29T04:42:05;101388.81;;;15.09;65.30
70925;BME280;58577;52.410;13.242;2022-07-29T04:44:51;101390.34;;;15.12;63.76
70925;BME280;58577;52.410;13.242;2022-07-29T04:47:36;101405.75;;;15.20;62.92
70925;BME280;58577;52.410;13.242;2022-07-29T04:50:22;101394.00;;;15.37;63.54
70925;BME280;58577;52.410;13.242;2022-07-29T04:53:08;101390.16;;;15.40;63.21
70925;BME280;58577;52.410;13.242;2022-07-29T04:55:54;101389.78;;;15.34;63.37
70925;BME280;58577;52.410;13.242;2022-07-29T04:58:40;101392.38;;;15.52;63.00
70925;BME280;58577;52.410;13.242;2022-07-29T05:01:26;101397.16;;;15.67;62.63
70925;BME280;58577;52.410;13.242;2022-07-29T05:04:12;101390.88;;;15.66;64.00
70925;BME280;58577;52.410;13.242;2022-07-29T05:06:58;101408.72;;;15.77;62.23
70925;BME280;58577;52.410;13.242;2022-07-29T05:09:53;101403.00;;;15.88;61.91
70925;BME280;58577;52.410;13.242;2022-07-29T05:12:39;101392.59;;;15.67;62.65
70925;BME280;58577;52.410;13.242;2022-07-29T05:15:25;101389.00;;;15.59;63.09
70925;BME280;58577;52.410;13.242;2022-07-29T05:18:10;101397.09;;;15.50;62.71
70925;BME280;58577;52.410;13.242;2022-07-29T05:20:56;101387.31;;;15.58;62.96
70925;BME280;58577;52.410;13.242;2022-07-29T05:23:42;101383.63;;;15.67;63.21
70925;BME280;58577;52.410;13.242;2022-07-29T05:26:28;101392.44;;;15.69;63.79
70925;BME280;58577;52.410;13.242;2022-07-29T05:29:14;101394.09;;;15.70;62.79
70925;BME280;58577;52.410;13.242;2022-07-29T05:31:59;101395.47;;;15.66;62.97
70925;BME280;58577;52.410;13.242;2022-07-29T05:34:45;101378.63;;;15.80;64.50
70925;BME280;58577;52.410;13.242;2022-07-29T05:37:31;101415.06;;;15.68;62.44
70925;BME280;58577;52.410;13.242;2022-07-29T05:40:17;101409.03;;;15.74;61.94
70925;BME280;58577;52.410;13.242;2022-07-29T05:43:03;101425.69;;;15.96;60.96
70925;BME280;58577;52.410;13.242;2022-07-29T05:45:49;101383.41;;;16.11;62.96
70925;BME280;58577;52.410;13.242;2022-07-29T05:48:34;101419.97;;;16.40;60.81
70925;BME280;58577;52.410;13.242;2022-07-29T05:51:20;101417.59;;;16.53;59.26
70925;BME280;58577;52.410;13.242;2022-07-29T05:54:06;101422.34;;;16.67;58.92
70925;BME280;58577;52.410;13.242;2022-07-29T05:56:52;101422.84;;;16.71;58.55
70925;BME280;58577;52.410;13.242;2022-07-29T05:59:38;101392.00;;;16.72;60.17
70925;BME280;58577;52.410;13.242;2022-07-29T06:02:23;101383.22;;;16.70;60.95
70925;BME280;58577;52.410;13.242;2022-07-29T06:05:09;101420.47;;;16.76;59.18
70925;BME280;58577;52.410;13.242;2022-07-29T06:07:55;101425.72;;;16.86;58.03
70925;BME280;58577;52.410;13.242;2022-07-29T06:10:41;101395.06;;;16.94;59.52
70925;BME280;58577;52.410;13.242;2022-07-29T06:13:27;101421.63;;;17.06;57.14
70925;BME280;58577;52.410;13.242;2022-07-29T06:16:13;101419.41;;;17.18;56.83
70925;BME280;58577;52.410;13.242;2022-07-29T06:18:59;101408.41;;;17.12;57.87
70925;BME280;58577;52.410;13.242;2022-07-29T06:21:46;101383.66;;;17.15;60.13
70925;BME280;58577;52.410;13.242;2022-07-29T06:24:33;101390.09;;;17.05;59.59
70925;BME280;58577;52.410;13.242;2022-07-29T06:27:19;101385.00;;;17.10;60.06
70925;BME280;58577;52.410;13.242;2022-07-29T06:30:05;101393.66;;;17.14;58.96
70925;BME280;58577;52.410;13.242;2022-07-29T06:32:52;101409.69;;;17.32;58.18
70925;BME280;58577;52.410;13.242;2022-07-29T06:35:38;101399.16;;;17.37;58.25
70925;BME280;58577;52.410;13.242;2022-07-29T06:38:24;101390.47;;;17.50;59.67
70925;BME280;58577;52.410;13.242;2022-07-29T06:41:10;101399.94;;;17.54;59.07
70925;BME280;58577;52.410;13.242;2022-07-29T06:43:58;101408.56;;;17.58;58.79
70925;BME280;58577;52.410;13.242;2022-07-29T06:46:44;101433.94;;;17.73;56.49
70925;BME280;58577;52.410;13.242;2022-07-29T06:49:32;101419.75;;;17.94;56.70
70925;BME280;58577;52.410;13.242;2022-07-29T06:52:18;101447.88;;;18.71;54.34
70925;BME280;58577;52.410;13.242;2022-07-29T06:55:04;101465.22;;;19.97;50.45
70925;BME280;58577;52.410;13.242;2022-07-29T06:57:50;101449.25;;;20.73;49.13
70925;BME280;58577;52.410;13.242;2022-07-29T07:00:37;101444.78;;;20.22;49.59
70925;BME280;58577;52.410;13.242;2022-07-29T07:03:23;101431.81;;;19.88;51.10
70925;BME280;58577;52.410;13.242;2022-07-29T07:06:09;101433.59;;;19.66;51.40
70925;BME280;58577;52.410;13.242;2022-07-29T07:08:55;101432.94;;;19.64;51.61
70925;BME280;58577;52.410;13.242;2022-07-29T07:11:41;101445.44;;;20.68;50.29
70925;BME280;58577;52.410;13.242;2022-07-29T07:14:26;101431.03;;;21.09;49.54
70925;BME280;58577;52.410;13.242;2022-07-29T07:17:13;101443.25;;;21.89;46.91
70925;BME280;58577;52.410;13.242;2022-07-29T07:19:59;101422.78;;;22.67;46.26
70925;BME280;58577;52.410;13.242;2022-07-29T07:22:45;101431.13;;;23.32;43.96
70925;BME280;58577;52.410;13.242;2022-07-29T07:25:31;101451.56;;;23.94;41.67
70925;BME280;58577;52.410;13.242;2022-07-29T07:28:17;101431.00;;;23.65;41.70
70925;BME280;58577;52.410;13.242;2022-07-29T07:31:03;101433.19;;;24.33;40.19
70925;BME280;58577;52.410;13.242;2022-07-29T07:33:49;101431.75;;;24.63;39.64
70925;BME280;58577;52.410;13.242;2022-07-29T07:36:37;101407.34;;;24.16;42.52
70925;BME280;58577;52.410;13.242;2022-07-29T07:39:24;101426.75;;;23.83;42.10
70925;BME280;58577;52.410;13.242;2022-07-29T07:42:11;101417.84;;;23.94;41.65
70925;BME280;58577;52.410;13.242;2022-07-29T07:44:58;101425.84;;;24.84;39.88
70925;BME280;58577;52.410;13.242;2022-07-29T07:47:44;101424.13;;;25.82;38.62
70925;BME280;58577;52.410;13.242;2022-07-29T07:50:30;101427.31;;;26.28;36.55
70925;BME280;58577;52.410;13.242;2022-07-29T07:53:16;101411.53;;;25.93;37.28
70925;BME280;58577;52.410;13.242;2022-07-29T07:56:02;101399.03;;;24.86;39.61
70925;BME280;58577;52.410;13.242;2022-07-29T07:58:49;101391.94;;;24.22;40.69
70925;BME280;58577;52.410;13.242;2022-07-29T08:01:35;101390.66;;;23.92;40.76
70925;BME280;58577;52.410;13.242;2022-07-29T08:04:21;101387.19;;;23.65;41.44
70925;BME280;58577;52.410;13.242;2022-07-29T08:07:08;101386.00;;;23.48;41.36
70925;BME280;58577;52.410;13.242;2022-07-29T08:09:54;101375.41;;;23.58;42.65
70925;BME280;58577;52.410;13.242;2022-07-29T08:12:40;101381.97;;;23.50;41.65
70925;BME280;58577;52.410;13.242;2022-07-29T08:15:26;101381.72;;;23.65;42.00
70925;BME280;58577;52.410;13.242;2022-07-29T08:18:13;101395.16;;;23.80;40.55
70925;BME280;58577;52.410;13.242;2022-07-29T08:20:59;101389.34;;;24.02;40.57
70925;BME280;58577;52.410;13.242;2022-07-29T08:23:45;101401.38;;;24.58;38.38
70925;BME280;58577;52.410;13.242;2022-07-29T08:27:00;101397.31;;;24.85;38.06
70925;BME280;58577;52.410;13.242;2022-07-29T08:29:46;101401.22;;;25.88;37.48
70925;BME280;58577;52.410;13.242;2022-07-29T08:32:31;101406.66;;;26.49;35.41
70925;BME280;58577;52.410;13.242;2022-07-29T08:35:17;101392.84;;;26.14;35.49
70925;BME280;58577;52.410;13.242;2022-07-29T08:38:04;101391.19;;;25.64;36.03
70925;BME280;58577;52.410;13.242;2022-07-29T08:40:49;101383.41;;;25.61;36.65
70925;BME280;58577;52.410;13.242;2022-07-29T08:43:35;101376.31;;;24.98;37.66
70925;BME280;58577;52.410;13.242;2022-07-29T08:53:10;101381.19;;;24.45;38.39
70925;BME280;58577;52.410;13.242;2022-07-29T08:55:58;101386.25;;;25.36;37.72
70925;BME280;58577;52.410;13.242;2022-07-29T08:58:46;101397.91;;;26.40;36.19
70925;BME280;58577;52.410;13.242;2022-07-29T09:01:33;101396.63;;;26.55;34.31
70925;BME280;58577;52.410;13.242;2022-07-29T09:04:23;101399.13;;;27.27;34.97
70925;BME280;58577;52.410;13.242;2022-07-29T09:07:15;101403.13;;;27.60;32.22
70925;BME280;58577;52.410;13.242;2022-07-29T09:10:03;101398.44;;;28.18;31.64
70925;BME280;58577;52.410;13.242;2022-07-29T09:12:50;101388.56;;;27.76;34.05
70925;BME280;58577;52.410;13.242;2022-07-29T09:15:38;101374.50;;;26.73;34.59
70925;BME280;58577;52.410;13.242;2022-07-29T09:18:34;101363.97;;;25.74;35.56
70925;BME280;58577;52.410;13.242;2022-07-29T09:21:23;101365.25;;;26.32;34.50
70925;BME280;58577;52.410;13.242;2022-07-29T09:27:24;101356.69;;;25.68;36.14
70925;BME280;58577;52.410;13.242;2022-07-29T09:30:14;101342.00;;;25.74;38.43
70925;BME280;58577;52.410;13.242;2022-07-29T09:33:01;101358.47;;;26.46;35.63
70925;BME280;58577;52.410;13.242;2022-07-29T09:36:05;101367.31;;;26.96;34.60
70925;BME280;58577;52.410;13.242;2022-07-29T09:39:13;101360.66;;;26.14;34.81
70925;BME280;58577;52.410;13.242;2022-07-29T09:42:03;101349.50;;;25.97;35.13
70925;BME280;58577;52.410;13.242;2022-07-29T09:44:50;101345.38;;;25.88;35.91
70925;BME280;58577;52.410;13.242;2022-07-29T09:47:44;101351.38;;;25.85;35.16
70925;BME280;58577;52.410;13.242;2022-07-29T09:50:40;101356.13;;;26.08;34.14
70925;BME280;58577;52.410;13.242;2022-07-29T09:53:35;101348.75;;;26.44;34.18
70925;BME280;58577;52.410;13.242;2022-07-29T09:56:41;101370.63;;;27.21;32.31
70925;BME280;58577;52.410;13.242;2022-07-29T09:59:29;101356.41;;;27.94;30.58
70925;BME280;58577;52.410;13.242;2022-07-29T10:02:16;101340.00;;;27.06;32.48
70925;BME280;58577;52.410;13.242;2022-07-29T10:05:16;101331.84;;;27.80;31.78
70925;BME280;58577;52.410;13.242;2022-07-29T10:08:06;101337.13;;;27.53;31.03
70925;BME280;58577;52.410;13.242;2022-07-29T10:11:11;101326.53;;;27.21;31.66
70925;BME280;58577;52.410;13.242;2022-07-29T10:14:03;101344.09;;;26.44;30.99
70925;BME280;58577;52.410;13.242;2022-07-29T10:16:50;101339.19;;;26.58;32.29
70925;BME280;58577;52.410;13.242;2022-07-29T10:19:49;101349.72;;;26.61;30.75
70925;BME280;58577;52.410;13.242;2022-07-29T10:22:42;101325.91;;;26.43;32.38
70925;BME280;58577;52.410;13.242;2022-07-29T10:25:33;101333.25;;;27.14;31.80
70925;BME280;58577;52.410;13.242;2022-07-29T10:28:20;101358.88;;;27.38;30.58
70925;BME280;58577;52.410;13.242;2022-07-29T10:31:08;101340.91;;;27.23;30.89
70925;BME280;58577;52.410;13.242;2022-07-29T10:34:59;101348.19;;;26.77;30.60
70925;BME280;58577;52.410;13.242;2022-07-29T10:40:47;101346.25;;;26.54;30.99
70925;BME280;58577;52.410;13.242;2022-07-29T10:47:02;101318.91;;;26.05;31.87
70925;BME280;58577;52.410;13.242;2022-07-29T10:49:59;101330.34;;;25.60;31.43
70925;BME280;58577;52.410;13.242;2022-07-29T10:55:44;101328.09;;;26.65;31.64
70925;BME280;58577;52.410;13.242;2022-07-29T10:58:34;101333.50;;;28.27;29.19
70925;BME280;58577;52.410;13.242;2022-07-29T11:01:30;101339.31;;;29.43;27.39
70925;BME280;58577;52.410;13.242;2022-07-29T11:07:32;101321.75;;;29.81;26.51
70925;BME280;58577;52.410;13.242;2022-07-29T11:10:24;101321.38;;;30.32;25.23
70925;BME280;58577;52.410;13.242;2022-07-29T11:13:46;101325.19;;;30.26;25.66
70925;BME280;58577;52.410;13.242;2022-07-29T11:17:00;101296.38;;;29.89;26.65
70925;BME280;58577;52.410;13.242;2022-07-29T11:19:49;101292.78;;;29.89;27.50
70925;BME280;58577;52.410;13.242;2022-07-29T11:22:36;101296.38;;;29.89;27.17
70925;BME280;58577;52.410;13.242;2022-07-29T11:25:25;101294.69;;;30.21;27.90
70925;BME280;58577;52.410;13.242;2022-07-29T11:28:16;101299.66;;;30.51;27.83
70925;BME280;58577;52.410;13.242;2022-07-29T11:31:07;101299.25;;;30.80;27.57
70925;BME280;58577;52.410;13.242;2022-07-29T11:42:44;101294.72;;;30.58;26.88
70925;BME280;58577;52.410;13.242;2022-07-29T11:45:45;101286.38;;;30.53;28.06
70925;BME280;58577;52.410;13.242;2022-07-29T11:48:37;101271.47;;;30.27;28.82
70925;BME280;58577;52.410;13.242;2022-07-29T11:51:27;101282.03;;;29.92;28.74
70925;BME280;58577;52.410;13.242;2022-07-29T11:54:23;101273.38;;;29.84;30.09
70925;BME280;58577;52.410;13.242;2022-07-29T11:57:18;101276.75;;;30.66;29.11
70925;BME280;58577;52.410;13.242;2022-07-29T12:00:11;101277.19;;;31.00;27.77
70925;BME280;58577;52.410;13.242;2022-07-29T12:03:06;101282.47;;;31.02;27.61
70925;BME280;58577;52.410;13.242;2022-07-29T12:05:55;101284.84;;;30.83;28.67
70925;BME280;58577;52.410;13.242;2022-07-29T12:08:42;101277.72;;;30.92;29.45
70925;BME280;58577;52.410;13.242;2022-07-29T12:11:29;101278.75;;;30.81;28.30
70925;BME280;58577;52.410;13.242;2022-07-29T12:14:32;101263.56;;;30.35;29.55
70925;BME280;58577;52.410;13.242;2022-07-29T12:17:32;101246.75;;;30.47;30.53
70925;BME280;58577;52.410;13.242;2022-07-29T12:20:26;101266.06;;;30.42;28.97
70925;BME280;58577;52.410;13.242;2022-07-29T12:23:14;101251.38;;;30.36;29.77
70925;BME280;58577;52.410;13.242;2022-07-29T12:26:06;101249.53;;;31.15;28.83
70925;BME280;58577;52.410;13.242;2022-07-29T12:28:52;101251.59;;;30.77;29.28
70925;BME280;58577;52.410;13.242;2022-07-29T12:31:42;101248.84;;;29.38;30.39
70925;BME280;58577;52.410;13.242;2022-07-29T12:34:33;101247.97;;;29.10;31.17
70925;BME280;58577;52.410;13.242;2022-07-29T12:37:19;101238.88;;;29.64;31.90
70925;BME280;58577;52.410;13.242;2022-07-29T12:40:06;101246.34;;;29.64;29.91
70925;BME280;58577;52.410;13.242;2022-07-29T12:43:19;101247.19;;;29.37;30.47
70925;BME280;58577;52.410;13.242;2022-07-29T12:46:13;101231.91;;;29.56;30.36
70925;BME280;58577;52.410;13.242;2022-07-29T12:49:00;101252.00;;;30.06;28.86
70925;BME280;58577;52.410;13.242;2022-07-29T12:51:46;101254.88;;;30.22;29.56
70925;BME280;58577;52.410;13.242;2022-07-29T12:54:32;101252.56;;;29.76;28.88
70925;BME280;58577;52.410;13.242;2022-07-29T12:57:18;101250.91;;;30.12;28.57
70925;BME280;58577;52.410;13.242;2022-07-29T13:02:58;101239.50;;;29.71;30.01
70925;BME280;58577;52.410;13.242;2022-07-29T13:05:45;101244.94;;;29.88;30.33
70925;BME280;58577;52.410;13.242;2022-07-29T13:08:30;101236.66;;;29.88;30.03
70925;BME280;58577;52.410;13.242;2022-07-29T13:11:33;101243.16;;;30.47;29.07
70925;BME280;58577;52.410;13.242;2022-07-29T13:17:22;101231.16;;;30.89;28.74
70925;BME280;58577;52.410;13.242;2022-07-29T13:20:13;101227.66;;;30.51;29.05
70925;BME280;58577;52.410;13.242;2022-07-29T13:23:00;101224.00;;;30.03;29.46
70925;BME280;58577;52.410;13.242;2022-07-29T13:25:46;101213.88;;;29.21;30.73
70925;BME280;58577;52.410;13.242;2022-07-29T13:28:32;101221.19;;;29.92;30.75
70925;BME280;58577;52.410;13.242;2022-07-29T13:31:18;101219.19;;;30.30;29.89
70925;BME280;58577;52.410;13.242;2022-07-29T13:34:03;101199.28;;;29.26;31.53
70925;BME280;58577;52.410;13.242;2022-07-29T13:36:49;101199.00;;;29.87;31.39
70925;BME280;58577;52.410;13.242;2022-07-29T13:39:35;101206.28;;;29.12;32.06
70925;BME280;58577;52.410;13.242;2022-07-29T13:42:23;101180.84;;;29.10;32.83
70925;BME280;58577;52.410;13.242;2022-07-29T13:45:09;101199.88;;;29.60;31.22
70925;BME280;58577;52.410;13.242;2022-07-29T13:47:56;101204.50;;;29.82;30.49
70925;BME280;58577;52.410;13.242;2022-07-29T13:50:42;101210.78;;;29.72;30.32
70925;BME280;58577;52.410;13.242;2022-07-29T13:53:28;101200.53;;;29.40;30.15
70925;BME280;58577;52.410;13.242;2022-07-29T13:56:14;101201.25;;;29.58;30.62
70925;BME280;58577;52.410;13.242;2022-07-29T13:59:00;101202.13;;;29.69;30.08
70925;BME280;58577;52.410;13.242;2022-07-29T14:01:45;101210.94;;;29.93;29.95
70925;BME280;58577;52.410;13.242;2022-07-29T14:04:32;101200.44;;;29.63;30.43
70925;BME280;58577;52.410;13.242;2022-07-29T14:07:18;101193.66;;;29.75;29.66
70925;BME280;58577;52.410;13.242;2022-07-29T14:10:05;101206.22;;;29.88;29.74
70925;BME280;58577;52.410;13.242;2022-07-29T14:12:51;101192.75;;;30.02;30.77
70925;BME280;58577;52.410;13.242;2022-07-29T14:15:37;101183.38;;;29.11;30.65
70925;BME280;58577;52.410;13.242;2022-07-29T14:18:23;101181.16;;;28.64;31.68
70925;BME280;58577;52.410;13.242;2022-07-29T14:21:09;101182.88;;;28.26;31.42
70925;BME280;58577;52.410;13.242;2022-07-29T14:23:55;101174.41;;;28.77;31.36
70925;BME280;58577;52.410;13.242;2022-07-29T14:26:41;101159.22;;;29.01;32.05
70925;BME280;58577;52.410;13.242;2022-07-29T14:29:27;101179.94;;;28.55;30.88
70925;BME280;58577;52.410;13.242;2022-07-29T14:32:13;101181.44;;;29.12;29.93
70925;BME280;58577;52.410;13.242;2022-07-29T14:35:00;101172.44;;;29.21;30.05
70925;BME280;58577;52.410;13.242;2022-07-29T14:37:46;101170.75;;;29.48;29.65
70925;BME280;58577;52.410;13.242;2022-07-29T14:40:31;101163.94;;;29.60;28.62
70925;BME280;58577;52.410;13.242;2022-07-29T14:43:17;101174.88;;;29.77;29.53
70925;BME280;58577;52.410;13.242;2022-07-29T14:46:04;101166.53;;;29.72;29.31
70925;BME280;58577;52.410;13.242;2022-07-29T14:48:49;101175.16;;;29.49;29.11
70925;BME280;58577;52.410;13.242;2022-07-29T14:51:35;101163.78;;;29.13;30.27
70925;BME280;58577;52.410;13.242;2022-07-29T14:54:21;101169.38;;;29.50;29.04
70925;BME280;58577;52.410;13.242;2022-07-29T14:57:07;101149.09;;;29.72;30.28
70925;BME280;58577;52.410;13.242;2022-07-29T14:59:53;101165.69;;;29.72;29.37
70925;BME280;58577;52.410;13.242;2022-07-29T15:02:39;101165.63;;;29.67;28.66
70925;BME280;58577;52.410;13.242;2022-07-29T15:05:25;101175.44;;;29.79;28.71
70925;BME280;58577;52.410;13.242;2022-07-29T15:08:11;101166.00;;;29.75;28.64
70925;BME280;58577;52.410;13.242;2022-07-29T15:10:57;101159.38;;;29.44;29.34
70925;BME280;58577;52.410;13.242;2022-07-29T15:13:44;101155.25;;;29.79;29.47
70925;BME280;58577;52.410;13.242;2022-07-29T15:16:30;101163.81;;;29.77;28.35